Time;durP1;ratioP1;P1;durP2;ratioP2;P2;SDS_P1;SDS_P2;PMS_P1;PMS_P2;Temp;Humidity;BMP_temperature;BMP_pressure;BME280_temperature;BME280_humidity;BME280_pressure;Samples;Min_cycle;Max_cycle;Signal;HPM_P1;HPM_P2
2022/05/18 00:00:17;;;;;;;35.58;14.95;;;;;;;;;;5046442;28;20524;-68
2022/05/18 00:03:10;;;;;;;33.08;14.93;;;;;;;;;;5036653;28;20438;-68
2022/05/18 00:05:38;;;;;;;28.15;14.27;;;;;;;;;;5053449;28;20040;-67
2022/05/18 00:08:06;;;;;;;29.42;14.20;;;;;;;;;;5048092;28;20051;-67
2022/05/18 00:10:34;;;;;;;28.13;14.07;;;;;;;;;;5038733;28;20413;-67
2022/05/18 00:13:00;;;;;;;26.40;13.00;;;;;;;;;;5044538;28;20352;-71
2022/05/18 00:15:28;;;;;;;28.52;12.57;;;;;;;;;;5038907;28;20044;-74
2022/05/18 00:17:54;;;;;;;26.67;12.00;;;;;;;;;;5038556;28;21032;-70
2022/05/18 00:20:21;;;;;;;28.17;11.55;;;;;;;;;;5041114;28;20436;-72
2022/05/18 00:22:49;;;;;;;25.23;10.50;;;;;;;;;;5041589;28;20396;-70
2022/05/18 00:25:16;;;;;;;28.13;10.88;;;;;;;;;;5065106;28;20113;-67
2022/05/18 00:27:42;;;;;;;26.55;11.40;;;;;;;;;;5045345;28;20602;-69
2022/05/18 00:30:11;;;;;;;21.80;10.93;;;;;;;;;;5047256;28;20076;-68
2022/05/18 00:32:36;;;;;;;29.17;11.13;;;;;;;;;;5035590;28;20037;-67
2022/05/18 00:35:03;;;;;;;19.15;9.35;;;;;;;;;;5036143;28;20044;-66
2022/05/18 00:37:29;;;;;;;24.40;9.57;;;;;;;;;;5051426;28;20041;-67
2022/05/18 00:39:55;;;;;;;20.90;8.63;;;;;;;;;;5045552;28;20094;-70
2022/05/18 00:42:25;;;;;;;23.42;9.50;;;;;;;;;;5048399;28;20053;-67
2022/05/18 00:44:51;;;;;;;25.38;9.18;;;;;;;;;;5051279;28;20177;-66
2022/05/18 00:47:17;;;;;;;20.75;8.48;;;;;;;;;;5048466;28;20404;-68
2022/05/18 00:49:47;;;;;;;23.90;9.23;;;;;;;;;;5049973;28;20044;-70
2022/05/18 00:52:14;;;;;;;25.83;10.50;;;;;;;;;;5037272;28;20045;-66
2022/05/18 00:54:42;;;;;;;20.23;8.98;;;;;;;;;;5046192;28;20053;-73
2022/05/18 00:57:13;;;;;;;20.67;9.98;;;;;;;;;;5046579;28;20424;-66
2022/05/18 00:59:51;;;;;;;28.50;9.93;;;;;;;;;;5046628;28;20086;-67
2022/05/18 01:02:19;;;;;;;26.80;9.93;;;;;;;;;;5048758;28;20091;-66
2022/05/18 01:04:48;;;;;;;28.92;9.88;;;;;;;;;;5050300;28;20492;-68
2022/05/18 01:07:23;;;;;;;22.75;9.45;;;;;;;;;;5049464;28;20053;-67
2022/05/18 01:09:50;;;;;;;23.33;9.35;;;;;;;;;;5044159;28;20044;-67
2022/05/18 01:12:20;;;;;;;21.83;9.90;;;;;;;;;;5051362;28;20045;-68
2022/05/18 01:14:50;;;;;;;19.17;10.02;;;;;;;;;;5043145;28;20044;-68
2022/05/18 01:17:22;;;;;;;28.00;9.93;;;;;;;;;;5046980;28;20059;-68
2022/05/18 01:19:50;;;;;;;20.08;9.38;;;;;;;;;;5042909;28;20548;-69
2022/05/18 01:22:41;;;;;;;21.70;10.05;;;;;;;;;;5042915;28;20449;-66
2022/05/18 01:25:28;;;;;;;24.30;10.65;;;;;;;;;;5043712;28;20056;-66
2022/05/18 01:27:57;;;;;;;27.73;11.02;;;;;;;;;;5039106;28;20053;-67
2022/05/18 01:30:23;;;;;;;18.98;10.48;;;;;;;;;;5037946;28;20051;-65
2022/05/18 01:32:52;;;;;;;20.67;9.50;;;;;;;;;;5042415;28;20049;-69
2022/05/18 01:35:26;;;;;;;22.55;9.68;;;;;;;;;;5044341;28;20049;-66
2022/05/18 01:37:57;;;;;;;19.55;9.50;;;;;;;;;;5037542;28;20049;-66
2022/05/18 01:40:41;;;;;;;21.92;9.38;;;;;;;;;;5046772;28;20041;-67
2022/05/18 01:43:31;;;;;;;23.27;9.10;;;;;;;;;;5041234;28;20107;-65
2022/05/18 01:45:59;;;;;;;24.80;9.35;;;;;;;;;;5039188;28;20455;-66
2022/05/18 01:48:29;;;;;;;17.48;8.65;;;;;;;;;;5048277;28;20045;-66
2022/05/18 01:50:58;;;;;;;25.35;9.00;;;;;;;;;;5047054;28;20474;-65
2022/05/18 01:53:24;;;;;;;24.58;9.38;;;;;;;;;;5046388;28;20154;-68
2022/05/18 01:55:50;;;;;;;26.00;9.65;;;;;;;;;;5046050;28;20052;-68
2022/05/18 01:58:16;;;;;;;22.58;9.40;;;;;;;;;;5036461;28;20564;-66
2022/05/18 02:00:44;;;;;;;21.38;8.93;;;;;;;;;;5039833;28;20045;-66
2022/05/18 02:03:10;;;;;;;21.88;9.05;;;;;;;;;;5051523;28;20109;-67
2022/05/18 02:05:37;;;;;;;26.98;8.75;;;;;;;;;;5043436;28;20538;-66
2022/05/18 02:08:04;;;;;;;19.67;8.50;;;;;;;;;;5038286;28;20118;-66
2022/05/18 02:10:30;;;;;;;18.35;8.05;;;;;;;;;;5040111;28;20091;-67
2022/05/18 02:12:56;;;;;;;16.75;8.77;;;;;;;;;;5032939;28;20107;-66
2022/05/18 02:15:25;;;;;;;22.40;8.95;;;;;;;;;;5043300;28;20049;-67
2022/05/18 02:17:52;;;;;;;18.63;8.68;;;;;;;;;;5047568;28;20045;-66
2022/05/18 02:20:19;;;;;;;29.67;9.82;;;;;;;;;;5046192;28;20136;-66
2022/05/18 02:22:45;;;;;;;19.33;8.60;;;;;;;;;;5035581;28;20421;-66
2022/05/18 02:25:11;;;;;;;19.67;9.38;;;;;;;;;;5046343;28;20059;-67
2022/05/18 02:27:36;;;;;;;18.85;9.02;;;;;;;;;;5043442;28;20112;-66
2022/05/18 02:30:05;;;;;;;24.48;9.20;;;;;;;;;;5035580;28;20135;-68
2022/05/18 02:32:31;;;;;;;23.60;9.30;;;;;;;;;;5048334;28;20063;-66
2022/05/18 02:34:56;;;;;;;20.63;8.90;;;;;;;;;;5038447;28;20037;-67
2022/05/18 02:37:22;;;;;;;23.08;9.55;;;;;;;;;;5039469;28;20037;-66
2022/05/18 02:39:48;;;;;;;22.52;8.73;;;;;;;;;;5045144;28;20102;-67
2022/05/18 02:42:14;;;;;;;22.55;9.38;;;;;;;;;;5046526;28;20048;-68
2022/05/18 02:44:40;;;;;;;26.75;9.52;;;;;;;;;;5042133;28;20362;-67
2022/05/18 02:47:06;;;;;;;22.60;8.93;;;;;;;;;;5041152;28;20083;-68
2022/05/18 02:49:32;;;;;;;23.25;9.02;;;;;;;;;;5042942;28;20392;-67
2022/05/18 02:51:58;;;;;;;20.88;9.05;;;;;;;;;;5046208;28;20045;-67
2022/05/18 02:57:10;;;;;;;23.55;8.82;;;;;;;;;;5048657;28;20053;-66
2022/05/18 02:59:36;;;;;;;18.83;8.88;;;;;;;;;;5044334;28;20045;-67
2022/05/18 03:02:03;;;;;;;16.42;8.88;;;;;;;;;;5035648;28;20397;-67
2022/05/18 03:04:30;;;;;;;18.45;9.05;;;;;;;;;;5043061;28;20351;-68
2022/05/18 03:06:56;;;;;;;20.60;8.98;;;;;;;;;;5049383;28;20058;-67
2022/05/18 03:09:22;;;;;;;21.50;9.48;;;;;;;;;;5044664;28;20056;-68
2022/05/18 03:11:50;;;;;;;25.58;9.23;;;;;;;;;;5044559;28;20049;-67
2022/05/18 03:14:16;;;;;;;20.45;8.70;;;;;;;;;;5043652;28;20045;-73
2022/05/18 03:16:44;;;;;;;17.85;8.52;;;;;;;;;;5039235;28;20056;-66
2022/05/18 03:19:13;;;;;;;23.95;9.38;;;;;;;;;;5041515;28;20056;-65
2022/05/18 03:24:24;;;;;;;17.63;8.65;;;;;;;;;;5039430;28;20053;-67
2022/05/18 03:26:50;;;;;;;23.83;9.25;;;;;;;;;;5043451;28;20063;-66
2022/05/18 03:29:17;;;;;;;18.15;8.10;;;;;;;;;;5036568;28;20087;-65
2022/05/18 03:31:48;;;;;;;19.83;8.90;;;;;;;;;;5038896;28;20048;-66
2022/05/18 03:34:14;;;;;;;21.23;8.23;;;;;;;;;;5038887;28;20110;-67
2022/05/18 03:36:41;;;;;;;20.90;7.97;;;;;;;;;;5042849;28;20084;-65
2022/05/18 03:39:07;;;;;;;20.52;8.38;;;;;;;;;;5038972;28;20044;-66
2022/05/18 03:41:36;;;;;;;21.35;8.82;;;;;;;;;;5036500;28;21149;-66
2022/05/18 03:44:04;;;;;;;21.42;8.05;;;;;;;;;;5038601;28;20045;-67
2022/05/18 03:46:30;;;;;;;19.23;8.75;;;;;;;;;;5037989;28;20037;-66
2022/05/18 03:48:56;;;;;;;22.55;8.55;;;;;;;;;;5039722;28;23376;-67
2022/05/18 03:51:22;;;;;;;20.05;8.38;;;;;;;;;;5038500;28;20403;-66
2022/05/18 03:53:48;;;;;;;16.20;8.00;;;;;;;;;;5036615;28;20098;-66
2022/05/18 03:56:15;;;;;;;19.38;8.50;;;;;;;;;;5038579;28;20064;-67
2022/05/18 03:58:41;;;;;;;18.38;8.73;;;;;;;;;;5043292;28;20256;-67
2022/05/18 04:01:08;;;;;;;17.80;8.25;;;;;;;;;;5040891;28;20075;-65
2022/05/18 04:03:37;;;;;;;22.00;9.02;;;;;;;;;;5041861;28;20136;-68
2022/05/18 04:06:03;;;;;;;19.55;8.10;;;;;;;;;;5039521;28;20132;-66
2022/05/18 04:08:29;;;;;;;21.10;8.60;;;;;;;;;;5040991;28;20069;-67
2022/05/18 04:10:56;;;;;;;23.25;8.57;;;;;;;;;;5042265;28;20049;-68
2022/05/18 04:13:25;;;;;;;19.30;9.05;;;;;;;;;;5035293;28;20045;-67
2022/05/18 04:15:52;;;;;;;19.67;8.25;;;;;;;;;;5046068;28;20060;-67
2022/05/18 04:18:18;;;;;;;16.08;8.55;;;;;;;;;;5044997;28;20123;-66
2022/05/18 04:20:44;;;;;;;22.60;9.05;;;;;;;;;;5045893;28;20102;-68
2022/05/18 04:23:12;;;;;;;24.60;8.85;;;;;;;;;;5044348;28;20386;-66
2022/05/18 04:25:39;;;;;;;21.67;9.40;;;;;;;;;;5043414;28;20053;-65
2022/05/18 04:28:05;;;;;;;16.63;8.65;;;;;;;;;;5034316;28;20128;-67
2022/05/18 04:30:32;;;;;;;22.85;9.35;;;;;;;;;;5038027;28;20037;-66
2022/05/18 04:32:58;;;;;;;23.98;9.55;;;;;;;;;;5016357;28;20206;-68
2022/05/18 04:35:26;;;;;;;23.15;9.02;;;;;;;;;;5035228;28;20519;-67
2022/05/18 04:37:53;;;;;;;17.92;9.15;;;;;;;;;;5039235;28;20052;-64
2022/05/18 04:40:19;;;;;;;21.38;9.27;;;;;;;;;;5039977;28;20045;-68
2022/05/18 04:42:45;;;;;;;18.05;8.40;;;;;;;;;;5039950;28;20455;-67
2022/05/18 04:45:14;;;;;;;18.85;9.07;;;;;;;;;;5038284;28;20053;-67
2022/05/18 04:47:40;;;;;;;19.15;8.77;;;;;;;;;;5040056;28;20047;-66
2022/05/18 04:50:07;;;;;;;18.00;9.52;;;;;;;;;;5039330;28;20415;-69
2022/05/18 04:52:33;;;;;;;23.25;8.98;;;;;;;;;;5037199;28;20076;-66
2022/05/18 04:54:59;;;;;;;23.38;8.32;;;;;;;;;;5038567;28;20068;-66
2022/05/18 04:57:25;;;;;;;21.52;8.82;;;;;;;;;;5040027;28;20053;-67
2022/05/18 04:59:51;;;;;;;21.88;9.10;;;;;;;;;;5041631;28;20194;-70
2022/05/18 05:02:18;;;;;;;22.88;8.82;;;;;;;;;;5035592;28;20049;-71
2022/05/18 05:04:43;;;;;;;26.77;8.20;;;;;;;;;;5040079;28;20041;-65
2022/05/18 05:07:10;;;;;;;20.25;8.70;;;;;;;;;;5039580;28;20048;-66
2022/05/18 05:09:37;;;;;;;20.88;9.10;;;;;;;;;;5040120;28;20041;-65
2022/05/18 05:12:05;;;;;;;20.38;8.52;;;;;;;;;;5037707;28;20767;-67
2022/05/18 05:14:33;;;;;;;25.45;10.00;;;;;;;;;;5041419;28;20049;-67
2022/05/18 05:17:00;;;;;;;24.30;9.43;;;;;;;;;;5042131;28;20070;-67
2022/05/18 05:19:26;;;;;;;20.42;9.73;;;;;;;;;;5040803;28;20061;-66
2022/05/18 05:21:52;;;;;;;31.08;9.07;;;;;;;;;;5040921;28;20072;-66
2022/05/18 05:24:18;;;;;;;18.63;9.45;;;;;;;;;;5043898;28;20146;-67
2022/05/18 05:26:44;;;;;;;24.40;9.95;;;;;;;;;;5042625;28;20052;-69
2022/05/18 05:29:11;;;;;;;21.10;9.95;;;;;;;;;;5047083;28;20087;-66
2022/05/18 05:31:38;;;;;;;21.95;10.50;;;;;;;;;;5045869;28;20049;-70
2022/05/18 05:34:04;;;;;;;23.75;10.15;;;;;;;;;;5045246;28;20060;-71
2022/05/18 05:36:31;;;;;;;24.67;10.60;;;;;;;;;;5045261;28;20053;-67
2022/05/18 05:38:57;;;;;;;21.17;9.27;;;;;;;;;;5043413;28;20125;-67
2022/05/18 05:41:24;;;;;;;23.70;10.50;;;;;;;;;;5044861;28;20745;-69
2022/05/18 05:43:50;;;;;;;29.50;11.05;;;;;;;;;;5044716;28;20056;-70
2022/05/18 05:46:17;;;;;;;22.75;11.20;;;;;;;;;;5045233;28;20136;-67
2022/05/18 05:48:45;;;;;;;26.27;11.85;;;;;;;;;;5043725;28;20089;-67
2022/05/18 05:51:13;;;;;;;23.08;12.35;;;;;;;;;;5041490;28;20064;-66
2022/05/18 05:53:40;;;;;;;25.35;13.02;;;;;;;;;;5040923;28;20110;-70
2022/05/18 05:56:07;;;;;;;25.85;13.00;;;;;;;;;;5038612;28;20065;-67
2022/05/18 05:58:35;;;;;;;29.65;13.30;;;;;;;;;;5043773;28;20049;-68
2022/05/18 06:01:03;;;;;;;24.10;13.40;;;;;;;;;;5042735;28;20048;-65
2022/05/18 06:03:28;;;;;;;28.50;14.27;;;;;;;;;;5037458;28;20044;-67
2022/05/18 06:05:56;;;;;;;26.70;14.05;;;;;;;;;;5042943;28;20123;-67
2022/05/18 06:08:23;;;;;;;29.35;13.95;;;;;;;;;;5038328;28;20793;-68
2022/05/18 06:10:49;;;;;;;26.90;14.23;;;;;;;;;;5039257;28;20037;-64
2022/05/18 06:13:16;;;;;;;27.48;15.57;;;;;;;;;;5033666;28;20044;-64
2022/05/18 06:15:42;;;;;;;33.40;15.70;;;;;;;;;;5038300;28;20057;-65
2022/05/18 06:18:08;;;;;;;26.50;15.18;;;;;;;;;;5038689;28;20422;-65
2022/05/18 06:20:34;;;;;;;32.80;15.40;;;;;;;;;;5039839;28;20057;-66
2022/05/18 06:23:02;;;;;;;35.80;15.63;;;;;;;;;;5038639;28;20082;-65
2022/05/18 06:25:29;;;;;;;31.20;16.50;;;;;;;;;;5040122;28;20053;-66
2022/05/18 06:27:55;;;;;;;26.42;16.10;;;;;;;;;;5041442;28;20068;-67
2022/05/18 06:30:22;;;;;;;34.88;15.93;;;;;;;;;;5041063;28;20048;-67
2022/05/18 06:32:47;;;;;;;32.17;16.08;;;;;;;;;;5038534;28;20041;-64
2022/05/18 06:35:13;;;;;;;35.35;16.73;;;;;;;;;;5042980;28;20051;-66
2022/05/18 06:37:39;;;;;;;32.13;15.55;;;;;;;;;;5040737;28;20052;-65
2022/05/18 06:40:08;;;;;;;33.63;16.88;;;;;;;;;;5041203;28;20049;-67
2022/05/18 06:42:34;;;;;;;34.72;15.85;;;;;;;;;;5037772;28;20074;-67
2022/05/18 06:45:04;;;;;;;39.05;16.17;;;;;;;;;;5039578;28;20649;-66
2022/05/18 06:47:30;;;;;;;35.50;17.02;;;;;;;;;;5040700;28;20076;-71
2022/05/18 06:49:56;;;;;;;35.72;16.73;;;;;;;;;;5037763;28;20140;-68
2022/05/18 06:52:23;;;;;;;40.60;16.27;;;;;;;;;;5040156;28;20057;-67
2022/05/18 06:54:50;;;;;;;36.95;17.45;;;;;;;;;;5043530;28;20041;-69
2022/05/18 06:57:16;;;;;;;71.70;20.38;;;;;;;;;;5048164;28;20041;-67
2022/05/18 06:59:42;;;;;;;35.20;19.02;;;;;;;;;;5044189;28;20407;-67
2022/05/18 07:02:08;;;;;;;35.20;18.45;;;;;;;;;;5034428;28;20056;-69
2022/05/18 07:04:34;;;;;;;33.45;19.35;;;;;;;;;;5044268;28;20094;-69
2022/05/18 07:07:00;;;;;;;38.08;19.20;;;;;;;;;;5047955;28;20064;-68
2022/05/18 07:09:27;;;;;;;36.95;19.77;;;;;;;;;;5048463;28;20045;-68
2022/05/18 07:11:53;;;;;;;43.92;19.35;;;;;;;;;;5043252;28;20051;-69
2022/05/18 07:14:22;;;;;;;41.38;17.92;;;;;;;;;;5048120;28;20492;-69
2022/05/18 07:16:49;;;;;;;32.20;17.73;;;;;;;;;;5036448;28;20053;-71
2022/05/18 07:19:16;;;;;;;35.90;16.80;;;;;;;;;;5041843;28;20049;-67
2022/05/18 07:21:42;;;;;;;35.63;17.13;;;;;;;;;;5032087;28;20045;-67
2022/05/18 07:24:09;;;;;;;24.60;14.73;;;;;;;;;;5046146;28;20143;-66
2022/05/18 07:26:36;;;;;;;34.67;14.00;;;;;;;;;;5041521;28;20428;-70
2022/05/18 07:29:04;;;;;;;29.63;14.13;;;;;;;;;;5048938;28;20530;-69
2022/05/18 07:32:08;;;;;;;25.35;13.40;;;;;;;;;;5049362;28;20066;-67
2022/05/18 07:34:17;;;;;;;26.77;13.43;;;;;;;;;;5043849;28;20048;-68
2022/05/18 07:36:43;;;;;;;30.45;12.45;;;;;;;;;;5041466;28;20037;-68
2022/05/18 07:39:11;;;;;;;23.77;12.25;;;;;;;;;;5042364;28;20041;-69
2022/05/18 07:41:38;;;;;;;28.38;12.18;;;;;;;;;;5039306;28;20042;-67
2022/05/18 07:44:04;;;;;;;28.73;11.93;;;;;;;;;;5040773;28;20041;-68
2022/05/18 07:46:30;;;;;;;29.45;11.35;;;;;;;;;;5042141;28;20052;-67
2022/05/18 07:48:56;;;;;;;30.15;11.93;;;;;;;;;;5047832;28;20044;-73
2022/05/18 07:51:22;;;;;;;27.45;10.77;;;;;;;;;;5039564;28;20043;-67
2022/05/18 07:53:49;;;;;;;24.95;10.82;;;;;;;;;;5036711;28;20045;-67
2022/05/18 07:56:15;;;;;;;22.25;10.98;;;;;;;;;;5037364;28;20043;-68
2022/05/18 07:58:41;;;;;;;26.42;11.02;;;;;;;;;;5038697;28;20041;-67
2022/05/18 08:01:08;;;;;;;23.40;10.88;;;;;;;;;;5045246;28;20048;-67
2022/05/18 08:03:34;;;;;;;23.55;10.90;;;;;;;;;;5043098;28;20480;-66
2022/05/18 08:06:01;;;;;;;20.60;10.50;;;;;;;;;;5056120;28;20113;-68
2022/05/18 08:08:27;;;;;;;27.27;10.43;;;;;;;;;;5046636;28;20051;-69
2022/05/18 08:16:25;;;;;;;27.70;9.80;;;;;;;;;;5032502;28;20103;-68
2022/05/18 08:18:51;;;;;;;21.42;9.85;;;;;;;;;;5039945;28;20055;-66
2022/05/18 08:21:18;;;;;;;30.48;10.35;;;;;;;;;;5035364;28;20388;-71
2022/05/18 08:23:44;;;;;;;20.10;9.55;;;;;;;;;;5033004;28;20056;-67
2022/05/18 08:26:10;;;;;;;19.55;9.02;;;;;;;;;;5038973;28;20162;-69
2022/05/18 08:28:37;;;;;;;19.45;8.80;;;;;;;;;;5038092;28;20045;-68
2022/05/18 08:31:04;;;;;;;22.00;8.50;;;;;;;;;;5046004;28;20056;-68
2022/05/18 08:33:33;;;;;;;23.15;8.57;;;;;;;;;;5033686;28;20057;-67
2022/05/18 08:36:02;;;;;;;24.80;8.73;;;;;;;;;;5034811;28;20056;-70
2022/05/18 08:38:28;;;;;;;24.20;9.00;;;;;;;;;;5042274;28;20044;-67
2022/05/18 08:41:02;;;;;;;22.00;9.07;;;;;;;;;;5033589;28;20049;-68
2022/05/18 08:43:37;;;;;;;23.58;8.43;;;;;;;;;;5036819;28;20053;-67
2022/05/18 08:46:26;;;;;;;20.27;8.18;;;;;;;;;;5038246;28;20581;-69
2022/05/18 08:49:04;;;;;;;24.92;9.23;;;;;;;;;;5044558;28;20044;-66
2022/05/18 08:51:40;;;;;;;17.58;7.28;;;;;;;;;;5037682;28;20500;-66
2022/05/18 08:54:12;;;;;;;19.55;8.88;;;;;;;;;;5041765;28;20052;-67
2022/05/18 08:56:41;;;;;;;18.60;8.27;;;;;;;;;;5055225;28;20064;-66
2022/05/18 08:59:17;;;;;;;19.13;8.38;;;;;;;;;;5048978;28;20037;-66
2022/05/18 09:01:46;;;;;;;17.00;8.10;;;;;;;;;;5047568;28;20115;-65
2022/05/18 09:04:23;;;;;;;29.70;8.45;;;;;;;;;;5044455;28;20128;-65
2022/05/18 09:06:53;;;;;;;20.42;9.32;;;;;;;;;;5041057;28;20037;-64
2022/05/18 09:12:34;;;;;;;22.38;8.73;;;;;;;;;;5050397;28;20052;-66
2022/05/18 09:15:03;;;;;;;24.33;8.43;;;;;;;;;;5040459;28;20716;-65
2022/05/18 09:17:46;;;;;;;24.17;9.60;;;;;;;;;;5038940;28;20037;-67
2022/05/18 09:20:23;;;;;;;22.40;9.60;;;;;;;;;;5037856;28;20056;-67
2022/05/18 09:22:48;;;;;;;25.30;9.07;;;;;;;;;;5043592;28;20407;-67
2022/05/18 09:25:41;;;;;;;24.27;8.75;;;;;;;;;;5039523;28;20518;-64
2022/05/18 09:28:28;;;;;;;23.38;9.05;;;;;;;;;;5044389;28;20044;-66
2022/05/18 09:31:30;;;;;;;23.58;10.02;;;;;;;;;;5042850;28;20106;-63
2022/05/18 09:34:14;;;;;;;22.77;9.43;;;;;;;;;;5039101;28;20061;-66
2022/05/18 09:36:58;;;;;;;;;;;;;;;;;;5042390;28;20041;-64
2022/05/18 09:39:28;;;;;;;19.27;9.43;;;;;;;;;;5035725;28;19932;-65
2022/05/18 09:42:02;;;;;;;25.20;10.43;;;;;;;;;;5036255;28;20057;-64
2022/05/18 09:44:35;;;;;;;;;;;;;;;;;;5044946;28;20528;-66
2022/05/18 09:47:02;;;;;;;26.52;9.55;;;;;;;;;;5045072;28;19924;-65
2022/05/18 09:49:32;;;;;;;21.50;9.98;;;;;;;;;;5042316;28;20056;-65
2022/05/18 09:52:01;;;;;;;25.20;9.40;;;;;;;;;;5039016;28;20103;-66
2022/05/18 09:54:30;;;;;;;19.42;9.07;;;;;;;;;;5035218;28;20140;-68
2022/05/18 09:57:02;;;;;;;17.77;8.07;;;;;;;;;;5048267;28;20041;-67
2022/05/18 09:59:35;;;;;;;16.67;7.32;;;;;;;;;;5038485;28;20047;-64
2022/05/18 10:07:48;;;;;;;18.83;7.13;;;;;;;;;;5038074;28;20103;-66
2022/05/18 10:10:26;;;;;;;17.67;7.23;;;;;;;;;;5042609;28;20072;-65
2022/05/18 10:12:55;;;;;;;22.73;7.20;;;;;;;;;;5046767;28;20055;-67
2022/05/18 10:15:24;;;;;;;19.90;8.13;;;;;;;;;;5043824;28;20107;-70
2022/05/18 10:17:53;;;;;;;20.45;8.05;;;;;;;;;;5044639;28;20037;-66
2022/05/18 10:20:28;;;;;;;23.35;8.30;;;;;;;;;;5047342;28;20067;-64
2022/05/18 10:22:55;;;;;;;16.35;7.40;;;;;;;;;;5043976;28;20416;-67
2022/05/18 10:25:48;;;;;;;16.95;7.82;;;;;;;;;;5042022;28;20444;-68
2022/05/18 10:28:24;;;;;;;18.10;7.30;;;;;;;;;;5041653;28;20599;-64
2022/05/18 10:31:03;;;;;;;15.43;7.32;;;;;;;;;;5041317;28;20041;-67
2022/05/18 10:33:35;;;;;;;17.85;6.60;;;;;;;;;;5035608;28;20040;-66
2022/05/18 10:36:29;;;;;;;19.27;6.97;;;;;;;;;;5035814;28;20276;-69
2022/05/18 10:39:00;;;;;;;17.77;6.78;;;;;;;;;;5040038;28;20045;-68
2022/05/18 10:41:40;;;;;;;19.83;7.03;;;;;;;;;;5045070;28;20048;-70
2022/05/18 10:44:20;;;;;;;25.25;7.07;;;;;;;;;;5043449;28;20595;-67
2022/05/18 10:46:49;;;;;;;21.42;6.57;;;;;;;;;;5039290;28;20037;-69
2022/05/18 10:49:21;;;;;;;20.73;6.75;;;;;;;;;;5035767;28;20049;-69
2022/05/18 10:51:49;;;;;;;14.07;5.90;;;;;;;;;;5043611;28;20093;-67
2022/05/18 10:54:17;;;;;;;13.27;6.03;;;;;;;;;;5035092;28;20053;-68
2022/05/18 10:56:45;;;;;;;20.20;6.72;;;;;;;;;;5045711;28;20526;-68
2022/05/18 10:59:42;;;;;;;17.83;6.47;;;;;;;;;;5039452;28;20049;-68
2022/05/18 11:02:28;;;;;;;18.23;5.82;;;;;;;;;;5036590;28;20040;-70
2022/05/18 11:05:11;;;;;;;16.20;6.95;;;;;;;;;;5044211;28;20048;-66
2022/05/18 11:07:37;;;;;;;14.88;7.07;;;;;;;;;;5042012;28;20041;-66
2022/05/18 11:10:03;;;;;;;20.67;6.38;;;;;;;;;;5043269;28;20120;-68
2022/05/18 11:12:52;;;;;;;20.67;7.00;;;;;;;;;;5040399;28;20053;-69
2022/05/18 11:15:49;;;;;;;21.70;6.68;;;;;;;;;;5042251;28;20044;-71
2022/05/18 11:18:28;;;;;;;21.73;7.10;;;;;;;;;;5043716;28;20258;-70
2022/05/18 11:21:24;;;;;;;23.17;6.53;;;;;;;;;;5036381;28;20041;-69
2022/05/18 11:24:12;;;;;;;19.90;6.88;;;;;;;;;;5035421;28;20045;-66
2022/05/18 11:26:58;;;;;;;17.42;6.75;;;;;;;;;;5044691;28;20107;-69
2022/05/18 11:29:56;;;;;;;25.00;6.78;;;;;;;;;;5038571;28;20048;-66
2022/05/18 11:32:50;;;;;;;20.73;6.60;;;;;;;;;;5039202;28;20145;-65
2022/05/18 11:35:45;;;;;;;21.23;7.00;;;;;;;;;;5049782;28;20053;-68
2022/05/18 11:38:32;;;;;;;13.00;5.35;;;;;;;;;;5042199;28;20450;-65
2022/05/18 11:41:17;;;;;;;21.10;6.32;;;;;;;;;;5043007;28;20038;-69
2022/05/18 11:43:43;;;;;;;14.68;5.85;;;;;;;;;;5045323;28;20539;-68
2022/05/18 11:46:21;;;;;;;16.33;6.47;;;;;;;;;;5042695;28;20075;-67
2022/05/18 11:49:00;;;;;;;16.60;6.10;;;;;;;;;;5041175;28;20049;-65
2022/05/18 11:51:54;;;;;;;18.75;5.70;;;;;;;;;;5042960;28;20061;-67
2022/05/18 11:54:32;;;;;;;;;;;;;;;;;;5024242;28;20049;-69
2022/05/18 11:57:31;;;;;;;19.52;6.22;;;;;;;;;;5036085;28;19960;-68
2022/05/18 12:00:01;;;;;;;17.77;6.30;;;;;;;;;;5031560;28;20162;-68
2022/05/18 12:03:01;;;;;;;18.13;6.15;;;;;;;;;;5037555;28;20065;-66
2022/05/18 12:05:59;;;;;;;19.33;6.75;;;;;;;;;;5034982;28;20045;-69
2022/05/18 12:09:03;;;;;;;23.23;6.93;;;;;;;;;;5031113;28;20053;-72
2022/05/18 12:11:43;;;;;;;19.58;6.85;;;;;;;;;;4974292;28;20057;-69
2022/05/18 12:14:27;;;;;;;19.67;6.57;;;;;;;;;;4979249;28;20141;-64
2022/05/18 12:17:05;;;;;;;17.48;6.80;;;;;;;;;;4977424;28;20054;-66
2022/05/18 12:19:53;;;;;;;17.15;6.93;;;;;;;;;;4984620;28;20060;-66
2022/05/18 12:22:35;;;;;;;21.23;6.82;;;;;;;;;;4982270;28;20057;-67
2022/05/18 12:25:02;;;;;;;14.45;6.60;;;;;;;;;;4975610;28;20043;-66
2022/05/18 12:27:28;;;;;;;20.25;7.28;;;;;;;;;;4975448;28;20070;-67
2022/05/18 12:29:57;;;;;;;28.48;9.38;;;;;;;;;;4973548;28;20089;-65
2022/05/18 12:32:25;;;;;;;36.35;10.07;;;;;;;;;;4979129;28;20454;-67
2022/05/18 12:35:14;;;;;;;24.80;8.50;;;;;;;;;;4973651;28;20484;-71
2022/05/18 12:38:04;;;;;;;61.80;17.98;;;;;;;;;;4986218;28;20042;-67
2022/05/18 12:40:52;;;;;;;45.30;13.65;;;;;;;;;;4972505;28;20105;-68
2022/05/18 12:43:31;;;;;;;31.52;9.88;;;;;;;;;;4972390;28;20050;-67
2022/05/18 12:46:15;;;;;;;37.78;10.18;;;;;;;;;;4984264;28;20054;-65
2022/05/18 12:48:47;;;;;;;38.75;9.88;;;;;;;;;;5031158;28;20156;-66
2022/05/18 12:51:31;;;;;;;24.83;8.65;;;;;;;;;;5037025;28;20315;-63
2022/05/18 12:54:09;;;;;;;21.98;7.05;;;;;;;;;;4995144;28;1310432;-65
2022/05/18 12:56:35;;;;;;;20.52;7.00;;;;;;;;;;5037803;28;20369;-67
2022/05/18 12:59:10;;;;;;;34.00;10.43;;;;;;;;;;5043758;28;20131;-66
2022/05/18 13:01:43;;;;;;;22.42;7.63;;;;;;;;;;5044919;28;20041;-65
2022/05/18 13:04:09;;;;;;;19.40;6.97;;;;;;;;;;5044770;28;20537;-66
2022/05/18 13:06:35;;;;;;;19.10;7.50;;;;;;;;;;5043664;28;20407;-66
2022/05/18 13:09:19;;;;;;;26.67;7.75;;;;;;;;;;5043313;28;20064;-65
2022/05/18 13:11:48;;;;;;;15.13;6.63;;;;;;;;;;5041177;28;20045;-67
2022/05/18 13:14:25;;;;;;;23.65;7.05;;;;;;;;;;5036206;28;20060;-68
2022/05/18 13:16:51;;;;;;;20.00;6.53;;;;;;;;;;5042172;28;20084;-69
2022/05/18 13:19:23;;;;;;;16.88;6.25;;;;;;;;;;5047582;28;20041;-65
2022/05/18 13:22:13;;;;;;;20.48;6.82;;;;;;;;;;5038471;28;20057;-67
2022/05/18 13:25:05;;;;;;;19.55;6.78;;;;;;;;;;5038236;28;20052;-66
2022/05/18 13:27:31;;;;;;;21.85;6.72;;;;;;;;;;5039519;28;20048;-67
2022/05/18 13:29:59;;;;;;;18.83;6.68;;;;;;;;;;5035972;28;20120;-66
2022/05/18 13:32:27;;;;;;;23.98;7.30;;;;;;;;;;5043376;28;20041;-68
2022/05/18 13:35:02;;;;;;;15.95;7.38;;;;;;;;;;5044231;28;20154;-71
2022/05/18 13:37:29;;;;;;;16.70;7.00;;;;;;;;;;5045530;28;20060;-70
2022/05/18 13:39:55;;;;;;;21.17;6.85;;;;;;;;;;5046476;28;20284;-66
2022/05/18 13:42:24;;;;;;;23.60;7.28;;;;;;;;;;5040716;28;20722;-67
2022/05/18 13:44:57;;;;;;;17.83;6.85;;;;;;;;;;5038390;28;20049;-68
2022/05/18 13:47:45;;;;;;;22.42;7.82;;;;;;;;;;5065150;28;20041;-66
2022/05/18 13:50:24;;;;;;;15.18;7.00;;;;;;;;;;5030823;28;20444;-66
2022/05/18 13:52:51;;;;;;;18.88;7.60;;;;;;;;;;5033057;28;20056;-68
2022/05/18 13:55:21;;;;;;;19.33;7.53;;;;;;;;;;5030255;28;20045;-66
2022/05/18 13:57:57;;;;;;;22.02;7.32;;;;;;;;;;5030398;28;20121;-66
2022/05/18 14:00:40;;;;;;;17.60;7.15;;;;;;;;;;5040516;28;20654;-69
2022/05/18 14:03:06;;;;;;;18.63;6.85;;;;;;;;;;5038072;28;20416;-68
2022/05/18 14:05:35;;;;;;;16.75;6.97;;;;;;;;;;5031199;28;20056;-67
2022/05/18 14:08:42;;;;;;;18.73;6.10;;;;;;;;;;5045473;28;20045;-68
2022/05/18 14:11:12;;;;;;;18.38;6.80;;;;;;;;;;5044245;28;20432;-71
2022/05/18 14:13:39;;;;;;;16.40;6.15;;;;;;;;;;5048042;28;20469;-67
2022/05/18 14:16:07;;;;;;;16.08;6.22;;;;;;;;;;5036977;28;20041;-69
2022/05/18 14:18:39;;;;;;;18.13;6.60;;;;;;;;;;5037943;28;20045;-68
2022/05/18 14:21:10;;;;;;;17.35;6.95;;;;;;;;;;5046442;28;20048;-68
2022/05/18 14:23:45;;;;;;;16.05;7.43;;;;;;;;;;5051226;28;20523;-74
2022/05/18 14:26:13;;;;;;;21.85;7.10;;;;;;;;;;5045690;28;20075;-67
2022/05/18 14:28:46;;;;;;;21.02;7.90;;;;;;;;;;5047496;28;20048;-67
2022/05/18 14:31:17;;;;;;;22.27;6.88;;;;;;;;;;5039752;28;20095;-69
2022/05/18 14:34:01;;;;;;;20.50;7.00;;;;;;;;;;5041034;28;20191;-67
2022/05/18 14:36:32;;;;;;;;;;;;;;;;;;5044450;28;20047;-69
2022/05/18 14:39:11;;;;;;;15.27;7.10;;;;;;;;;;5049148;28;20425;-68
2022/05/18 14:41:44;;;;;;;19.80;6.60;;;;;;;;;;5048513;28;20114;-67
2022/05/18 14:44:16;;;;;;;19.02;6.88;;;;;;;;;;5048182;28;20068;-68
2022/05/18 14:46:47;;;;;;;19.58;7.70;;;;;;;;;;5045755;28;20083;-69
2022/05/18 14:49:18;;;;;;;17.98;7.57;;;;;;;;;;5048460;28;20045;-68
2022/05/18 14:52:08;;;;;;;17.65;7.90;;;;;;;;;;5044093;28;20045;-68
2022/05/18 14:54:47;;;;;;;18.55;8.45;;;;;;;;;;5027397;28;20057;-66
2022/05/18 14:57:23;;;;;;;20.10;8.35;;;;;;;;;;5029150;28;20439;-68
2022/05/18 14:59:56;;;;;;;20.85;8.23;;;;;;;;;;5039706;28;20354;-68
2022/05/18 15:02:24;;;;;;;16.40;7.80;;;;;;;;;;5047687;28;20052;-68
2022/05/18 15:05:03;;;;;;;18.50;8.20;;;;;;;;;;5049246;28;20049;-68
2022/05/18 15:07:33;;;;;;;20.80;8.02;;;;;;;;;;5034938;28;20378;-69
2022/05/18 15:10:03;;;;;;;16.23;7.85;;;;;;;;;;5048746;28;20130;-67
2022/05/18 15:12:35;;;;;;;19.77;8.05;;;;;;;;;;5047809;28;20312;-68